aviador You're here:

KFRG Decoded Metar

FARMINGDALE in NY, USA
Report Time2017-08-18 09:53:00
UTC Time2017-08-18 10:49:09
Flight Rules vfr VFR
Wind160° at 08 kt
W.Decomp.*RWY 19: 7.7 kt HW 2.2 kt LCW
RWY 14: 6.6 kt HW 4.5 kt RCW
W.Rank160° ranks 27
Current wind is below 160° avg. (8.2)
Visibility9999 m
Phenomena:N/A
Clouds:Scattered 048 Hf
Broken 060 Hf
Broken 075 Hf
Expected CloudBase > 800 ft AGL from Temp-Dew spread
Ceiling6,000 ft
Temp24°C (ISA +9)
Dew Point22°C (89% RH)
QNH1013 hPa
Density Alt1,476 ft
Elevation69 ft
Report Wrong Elevation
Raw Report
METAR KFRG 180953Z AUTO 16008KT 10SM SCT048 BKN060 BKN075 24/22 A2991
RMK AO2 SLP128 T02390222=

Extra information for KFRG:More info

Metar Taf Metar & Taf Last 4 Metars F.Rules Stats Wind Profile Meteogram Temp Stats Airport Information Weather charts Add Link Nearby VenuesMetar ALERT Operation Metar Decoded Social comments

AIRNAV info for KFRG